createdAt,value
2019-05-20T00:01:20.014Z,17.10
2019-05-20T00:03:48.734Z,17.00
2019-05-20T00:06:16.716Z,16.90
2019-05-20T00:08:47.384Z,16.80
2019-05-20T00:11:16.403Z,16.90
2019-05-20T00:13:45.503Z,16.90
2019-05-20T00:16:13.941Z,16.90
2019-05-20T00:18:53.913Z,17.00
2019-05-20T00:21:22.280Z,17.00
2019-05-20T00:23:52.144Z,17.00
2019-05-20T00:26:19.993Z,17.00
2019-05-20T00:28:48.824Z,16.90
2019-05-20T00:31:17.089Z,17.00
2019-05-20T00:33:49.115Z,16.90
2019-05-20T00:36:19.870Z,16.90
2019-05-20T00:39:07.604Z,16.90
2019-05-20T00:41:35.341Z,16.80
2019-05-20T00:44:03.168Z,16.70
2019-05-20T00:46:32.498Z,16.70
2019-05-20T00:49:00.988Z,16.60
2019-05-20T00:51:31.516Z,16.60
2019-05-20T00:54:02.907Z,16.60
2019-05-20T00:56:31.773Z,16.60
2019-05-20T00:58:59.661Z,16.60
2019-05-20T01:03:58.545Z,16.60
2019-05-20T01:06:28.632Z,16.60
2019-05-20T01:08:56.586Z,16.60
2019-05-20T01:11:24.861Z,16.60
2019-05-20T01:13:52.239Z,16.60
2019-05-20T01:16:20.736Z,16.60
2019-05-20T01:18:49.054Z,16.30
2019-05-20T01:21:16.683Z,16.20
2019-05-20T01:23:44.254Z,16.20
2019-05-20T01:26:14.991Z,16.20
2019-05-20T01:28:43.836Z,16.30
2019-05-20T01:31:13.073Z,16.30
2019-05-20T01:33:43.449Z,16.30
2019-05-20T01:36:16.024Z,16.40
2019-05-20T01:38:45.012Z,16.40
2019-05-20T01:41:12.984Z,16.40
2019-05-20T01:43:42.520Z,16.40
2019-05-20T01:46:11.322Z,16.40
2019-05-20T01:48:42.537Z,16.40
2019-05-20T01:51:11.211Z,16.40
2019-05-20T01:53:40.360Z,16.30
2019-05-20T01:56:08.965Z,16.30
2019-05-20T01:58:40.642Z,16.30
2019-05-20T02:01:09.595Z,16.40
2019-05-20T02:03:39.385Z,16.40
2019-05-20T02:06:08.362Z,16.30
2019-05-20T02:08:36.932Z,16.30
2019-05-20T02:11:10.080Z,16.30
2019-05-20T02:13:57.158Z,16.30
2019-05-20T02:16:25.279Z,16.30
2019-05-20T02:18:53.934Z,16.30
2019-05-20T02:21:22.656Z,16.30
2019-05-20T02:23:51.939Z,16.30
2019-05-20T02:26:21.574Z,16.30
2019-05-20T02:28:51.084Z,16.30
2019-05-20T02:31:22.631Z,16.30
2019-05-20T02:33:53.670Z,16.20
2019-05-20T02:36:23.148Z,16.20
2019-05-20T02:38:51.185Z,16.20
2019-05-20T02:41:21.046Z,16.10
2019-05-20T02:43:50.253Z,16.10
2019-05-20T02:48:49.038Z,16.10
2019-05-20T02:51:30.915Z,16.10
2019-05-20T02:54:00.627Z,16.10
2019-05-20T02:56:28.783Z,16.10
2019-05-20T02:58:57.136Z,16.10
2019-05-20T03:01:27.416Z,16.10
2019-05-20T03:04:10.563Z,16.10
2019-05-20T03:06:25.541Z,16.10
2019-05-20T03:08:53.920Z,16.10
2019-05-20T03:11:24.584Z,16.10
2019-05-20T03:13:52.493Z,16.10
2019-05-20T03:16:21.418Z,16.10
2019-05-20T03:18:49.348Z,16.10
2019-05-20T03:21:21.076Z,16.10
2019-05-20T03:23:51.033Z,16.00
2019-05-20T03:26:19.541Z,16.00
2019-05-20T03:28:50.404Z,16.00
2019-05-20T03:31:18.333Z,16.00
2019-05-20T03:33:46.017Z,16.00
2019-05-20T03:36:15.911Z,16.00
2019-05-20T03:38:51.890Z,16.00
2019-05-20T03:41:20.106Z,16.00
2019-05-20T03:43:48.605Z,16.00
2019-05-20T03:46:16.932Z,16.00
2019-05-20T03:48:48.259Z,15.90
2019-05-20T03:51:16.182Z,15.90
2019-05-20T03:53:46.176Z,15.90
2019-05-20T03:56:15.334Z,15.90
2019-05-20T03:58:43.222Z,15.90
2019-05-20T04:01:11.315Z,15.90
2019-05-20T04:03:41.294Z,15.90
2019-05-20T04:06:10.184Z,15.90
2019-05-20T04:13:35.102Z,15.90
2019-05-20T04:16:05.072Z,15.80
2019-05-20T04:18:33.053Z,15.90
2019-05-20T04:21:02.797Z,15.90
2019-05-20T04:23:31.240Z,15.90
2019-05-20T04:26:00.559Z,15.90
2019-05-20T04:28:31.069Z,15.90
2019-05-20T04:31:06.167Z,15.80
2019-05-20T04:33:35.039Z,15.80
2019-05-20T04:36:03.293Z,15.80
2019-05-20T04:38:32.170Z,15.80
2019-05-20T04:41:00.756Z,15.80
2019-05-20T04:43:29.150Z,15.80
2019-05-20T04:45:59.580Z,15.80
2019-05-20T04:48:27.183Z,16.10
2019-05-20T04:50:59.724Z,15.90
2019-05-20T04:53:28.278Z,15.90
2019-05-20T04:55:56.796Z,15.90
2019-05-20T04:58:27.734Z,16.00
2019-05-20T05:00:57.359Z,16.00
2019-05-20T05:03:27.431Z,16.10
2019-05-20T05:08:26.968Z,16.10
2019-05-20T05:10:55.669Z,16.10
2019-05-20T05:13:24.701Z,16.10
2019-05-20T05:15:53.574Z,16.30
2019-05-20T05:18:28.418Z,16.30
2019-05-20T05:20:57.320Z,16.30
2019-05-20T05:23:26.651Z,16.30
2019-05-20T05:26:03.011Z,16.30
2019-05-20T05:28:35.480Z,16.20
2019-05-20T05:31:22.964Z,16.20
2019-05-20T05:33:54.251Z,16.30
2019-05-20T05:36:20.487Z,16.40
2019-05-20T05:38:49.568Z,16.40
2019-05-20T05:41:18.984Z,16.40
2019-05-20T05:43:47.321Z,16.40
2019-05-20T05:46:16.884Z,16.20
2019-05-20T05:48:45.188Z,16.30
2019-05-20T05:51:14.534Z,16.10
2019-05-20T05:53:42.708Z,16.00
2019-05-20T05:56:10.659Z,16.00
2019-05-20T05:58:39.138Z,16.00
2019-05-20T06:01:07.925Z,15.90
2019-05-20T06:03:39.666Z,16.00
2019-05-20T06:06:12.806Z,15.90
2019-05-20T06:08:40.361Z,16.10
2019-05-20T06:11:09.731Z,16.20
2019-05-20T06:13:39.000Z,16.10
2019-05-20T06:16:09.444Z,16.10
2019-05-20T06:18:37.128Z,16.10
2019-05-20T06:21:07.993Z,16.10
2019-05-20T06:23:36.414Z,16.10
2019-05-20T06:26:09.176Z,16.20
2019-05-20T06:28:37.786Z,16.20
2019-05-20T06:31:06.005Z,16.10
2019-05-20T06:33:35.109Z,16.10
2019-05-20T06:36:04.303Z,16.10
2019-05-20T06:38:42.142Z,16.20
2019-05-20T06:41:11.441Z,16.30
2019-05-20T06:43:39.521Z,16.20
2019-05-20T06:46:08.863Z,16.10
2019-05-20T06:48:36.810Z,16.00
2019-05-20T06:51:04.963Z,15.90
2019-05-20T06:53:34.139Z,15.90
2019-05-20T06:56:02.227Z,16.00
2019-05-20T06:58:30.393Z,15.90
2019-05-20T07:00:58.584Z,16.10
2019-05-20T07:03:28.887Z,16.20
2019-05-20T07:05:56.658Z,16.10
2019-05-20T07:08:25.170Z,16.10
2019-05-20T07:10:53.145Z,16.00
2019-05-20T07:13:26.424Z,16.00
2019-05-20T07:15:56.088Z,15.80
2019-05-20T07:18:27.348Z,15.80
2019-05-20T07:20:54.891Z,15.90
2019-05-20T07:23:25.096Z,15.90
2019-05-20T07:25:52.989Z,15.90
2019-05-20T07:28:21.822Z,16.00
2019-05-20T07:30:50.338Z,16.00
2019-05-20T07:33:20.205Z,16.10
2019-05-20T07:38:17.751Z,16.20
2019-05-20T07:40:46.033Z,16.10
2019-05-20T07:43:15.838Z,16.00
2019-05-20T07:45:44.592Z,16.10
2019-05-20T07:48:12.943Z,15.90
2019-05-20T07:50:41.931Z,16.10
2019-05-20T07:53:13.581Z,16.20
2019-05-20T07:55:51.654Z,16.20
2019-05-20T07:58:23.944Z,16.30
2019-05-20T08:00:51.632Z,16.30
2019-05-20T08:03:22.216Z,16.50
2019-05-20T08:05:50.656Z,16.50
2019-05-20T08:08:19.049Z,16.60
2019-05-20T08:10:46.989Z,16.60
2019-05-20T08:13:17.739Z,16.80
2019-05-20T08:15:54.176Z,16.90
2019-05-20T08:18:23.829Z,17.00
2019-05-20T08:23:21.402Z,17.00
2019-05-20T08:25:51.000Z,16.90
2019-05-20T08:33:18.825Z,17.20
2019-05-20T08:36:05.656Z,17.50
2019-05-20T08:38:33.655Z,17.80
2019-05-20T08:44:11.953Z,17.90
2019-05-20T08:46:39.961Z,18.30
2019-05-20T08:49:11.190Z,18.30
2019-05-20T08:51:38.299Z,18.30
2019-05-20T08:54:06.104Z,18.20
2019-05-20T08:56:34.190Z,18.20
2019-05-20T08:59:03.088Z,18.20
2019-05-20T09:01:31.247Z,17.80
2019-05-20T09:03:59.700Z,17.80
2019-05-20T09:06:28.233Z,17.70
2019-05-20T09:08:58.224Z,17.70
2019-05-20T09:11:27.508Z,17.80
2019-05-20T09:13:55.332Z,17.60
2019-05-20T09:18:55.546Z,17.70
2019-05-20T09:21:24.787Z,17.70
2019-05-20T09:23:54.392Z,17.90
2019-05-20T09:26:23.791Z,18.20
2019-05-20T09:31:25.622Z,18.70
2019-05-20T09:33:57.202Z,18.70
2019-05-20T09:36:26.259Z,18.80
2019-05-20T09:38:54.790Z,18.70
2019-05-20T09:41:23.092Z,18.70
2019-05-20T09:43:51.520Z,18.40
2019-05-20T09:48:49.011Z,18.20
2019-05-20T09:53:45.267Z,17.90
2019-05-20T09:56:13.037Z,17.80
2019-05-20T10:03:39.598Z,17.80
2019-05-20T10:06:07.693Z,17.80
2019-05-20T10:08:43.309Z,17.90
2019-05-20T10:11:07.294Z,17.90
2019-05-20T10:13:36.393Z,18.00
2019-05-20T10:16:04.162Z,18.10
2019-05-20T10:18:37.558Z,18.00
2019-05-20T10:23:33.039Z,18.10
2019-05-20T10:26:01.885Z,18.10
2019-05-20T10:28:29.597Z,18.20
2019-05-20T10:30:57.527Z,18.20
2019-05-20T10:33:26.860Z,18.20
2019-05-20T10:35:57.793Z,18.20
2019-05-20T10:38:25.505Z,18.20
2019-05-20T10:40:53.931Z,18.20
2019-05-20T10:43:21.380Z,17.90
2019-05-20T10:48:19.471Z,18.10
2019-05-20T10:53:22.658Z,18.10
2019-05-20T10:55:50.383Z,18.10
2019-05-20T10:58:18.559Z,18.10
2019-05-20T11:01:01.880Z,18.00
2019-05-20T11:03:15.924Z,17.90
2019-05-20T11:05:43.432Z,18.00
2019-05-20T11:08:11.827Z,18.40
2019-05-20T11:10:40.924Z,18.40
2019-05-20T11:13:09.783Z,18.80
2019-05-20T11:15:38.017Z,18.90
2019-05-20T11:18:05.742Z,19.10
2019-05-20T11:20:59.267Z,19.30
2019-05-20T11:23:27.730Z,19.40
2019-05-20T11:25:57.344Z,19.60
2019-05-20T11:28:29.003Z,19.80
2019-05-20T11:30:57.170Z,19.90
2019-05-20T11:33:37.903Z,19.90
2019-05-20T11:36:18.801Z,19.80
2019-05-20T11:38:42.237Z,19.80
2019-05-20T11:41:11.305Z,19.60
2019-05-20T11:43:50.695Z,19.60
2019-05-20T11:46:27.393Z,19.60
2019-05-20T11:48:55.914Z,19.70
2019-05-20T11:51:24.800Z,19.70
2019-05-20T11:53:52.939Z,19.70
2019-05-20T11:58:57.188Z,19.80
2019-05-20T12:01:25.545Z,19.70
2019-05-20T12:03:54.329Z,19.50
2019-05-20T12:08:52.046Z,19.40
2019-05-20T12:11:27.101Z,19.50
2019-05-20T12:16:27.530Z,19.50
2019-05-20T12:18:55.801Z,19.50
2019-05-20T12:21:26.020Z,19.40
2019-05-20T12:23:54.511Z,19.20
2019-05-20T12:26:40.304Z,18.90
2019-05-20T12:29:08.358Z,18.90
2019-05-20T12:31:36.095Z,18.90
2019-05-20T12:34:13.258Z,19.00
2019-05-20T12:36:44.429Z,19.00
2019-05-20T12:39:12.506Z,19.10
2019-05-20T12:41:43.446Z,19.10
2019-05-20T12:44:13.221Z,19.30
2019-05-20T12:46:41.517Z,19.30
2019-05-20T12:49:09.237Z,19.30
2019-05-20T12:51:39.474Z,19.30
2019-05-20T12:54:09.018Z,19.30
2019-05-20T12:56:36.638Z,19.00
2019-05-20T12:59:05.080Z,19.00
2019-05-20T13:01:33.535Z,19.00
2019-05-20T13:04:01.451Z,19.00
2019-05-20T13:06:30.105Z,19.10
2019-05-20T13:08:58.807Z,19.10
2019-05-20T13:11:27.328Z,19.10
2019-05-20T13:13:55.705Z,19.00
2019-05-20T13:16:23.548Z,19.00
2019-05-20T13:18:55.799Z,18.90
2019-05-20T13:21:22.784Z,18.70
2019-05-20T13:23:53.119Z,18.70
2019-05-20T13:26:22.431Z,18.70
2019-05-20T13:28:52.191Z,18.90
2019-05-20T13:31:21.524Z,18.80
2019-05-20T13:33:50.867Z,19.00
2019-05-20T13:36:19.386Z,19.10
2019-05-20T13:39:06.018Z,19.20
2019-05-20T13:41:35.910Z,18.90
2019-05-20T13:44:03.533Z,18.90
2019-05-20T13:46:33.734Z,19.00
2019-05-20T13:49:02.083Z,19.00
2019-05-20T13:51:30.624Z,18.90
2019-05-20T13:54:00.748Z,18.90
2019-05-20T13:56:28.195Z,18.80
2019-05-20T13:58:57.026Z,18.70
2019-05-20T14:01:25.405Z,18.80
2019-05-20T14:03:57.223Z,18.70
2019-05-20T14:06:25.312Z,18.20
2019-05-20T14:08:57.797Z,18.20
2019-05-20T14:11:34.137Z,18.20
2019-05-20T14:13:57.270Z,18.20
2019-05-20T14:16:25.812Z,18.10
2019-05-20T14:18:56.162Z,18.10
2019-05-20T14:21:23.979Z,18.10
2019-05-20T14:23:52.670Z,18.10
2019-05-20T14:26:21.032Z,18.30
2019-05-20T14:28:52.292Z,18.30
2019-05-20T14:31:21.304Z,18.30
2019-05-20T14:36:37.880Z,18.10
2019-05-20T14:38:46.677Z,18.00
2019-05-20T14:41:21.693Z,17.90
2019-05-20T14:46:17.248Z,17.80
2019-05-20T14:48:45.255Z,17.90
2019-05-20T14:51:15.916Z,17.90
2019-05-20T14:53:46.946Z,17.90
2019-05-20T14:56:15.030Z,17.70
2019-05-20T14:58:43.860Z,17.60
2019-05-20T15:01:12.913Z,17.60
2019-05-20T15:03:42.499Z,17.50
2019-05-20T15:06:11.783Z,17.60
2019-05-20T15:08:41.898Z,17.60
2019-05-20T15:11:10.400Z,17.30
2019-05-20T15:13:38.861Z,17.20
2019-05-20T15:16:06.875Z,17.20
2019-05-20T15:18:35.119Z,17.20
2019-05-20T15:21:03.380Z,17.30
2019-05-20T15:23:32.851Z,17.40
2019-05-20T15:26:01.462Z,17.50
2019-05-20T15:28:30.193Z,17.60
2019-05-20T15:31:00.228Z,17.60
2019-05-20T15:33:31.460Z,17.70
2019-05-20T15:36:00.276Z,17.80
2019-05-20T15:38:28.189Z,17.80
2019-05-20T15:40:56.808Z,17.80
2019-05-20T15:43:24.785Z,17.70
2019-05-20T15:45:52.876Z,17.70
2019-05-20T15:48:20.878Z,17.70
2019-05-20T15:50:48.865Z,17.70
2019-05-20T15:55:45.335Z,17.60
2019-05-20T15:58:14.103Z,17.80
2019-05-20T16:00:41.434Z,17.90
2019-05-20T16:03:11.587Z,18.00
2019-05-20T16:05:41.752Z,18.00
2019-05-20T16:08:15.958Z,18.00
2019-05-20T16:10:43.795Z,17.90
2019-05-20T16:13:11.752Z,17.70
2019-05-20T16:15:40.603Z,17.70
2019-05-20T16:18:08.726Z,17.80
2019-05-20T16:20:38.021Z,17.90
2019-05-20T16:23:07.990Z,17.80
2019-05-20T16:35:46.151Z,18.10
2019-05-20T16:38:18.372Z,18.10
2019-05-20T16:43:14.910Z,18.30
2019-05-20T16:48:11.298Z,18.30
2019-05-20T16:53:10.877Z,18.10
2019-05-20T16:55:41.809Z,18.10
2019-05-20T16:58:09.497Z,18.00
2019-05-20T17:00:38.138Z,17.90
2019-05-20T17:05:34.846Z,17.90
2019-05-20T17:08:05.481Z,17.80
2019-05-20T17:10:33.965Z,17.80
2019-05-20T17:15:31.618Z,17.70
2019-05-20T17:18:00.047Z,17.80
2019-05-20T17:20:30.249Z,17.80
2019-05-20T17:22:58.510Z,17.80
2019-05-20T17:25:27.216Z,17.70
2019-05-20T17:27:55.284Z,17.70
2019-05-20T17:30:23.425Z,17.70
2019-05-20T17:32:52.305Z,17.70
2019-05-20T17:35:23.272Z,17.60
2019-05-20T17:37:55.064Z,17.70
2019-05-20T17:42:50.985Z,17.80
2019-05-20T17:45:19.377Z,17.40
2019-05-20T17:48:12.820Z,17.60
2019-05-20T17:50:41.863Z,17.60
2019-05-20T17:55:42.588Z,14.90
2019-05-20T17:58:10.582Z,17.50
2019-05-20T18:00:40.086Z,17.50
2019-05-20T18:03:08.742Z,17.40
2019-05-20T18:05:39.995Z,17.40
2019-05-20T18:18:12.317Z,17.30
2019-05-20T18:20:40.405Z,17.30
2019-05-20T18:23:09.183Z,17.20
2019-05-20T18:25:38.360Z,17.20
2019-05-20T18:28:06.420Z,17.10
2019-05-20T18:33:05.102Z,17.00
2019-05-20T18:48:00.024Z,17.60
2019-05-20T18:50:29.597Z,17.10
2019-05-20T18:52:58.181Z,17.00
2019-05-20T18:55:26.591Z,17.10
2019-05-20T18:57:55.427Z,17.00
2019-05-20T19:00:24.365Z,17.10
2019-05-20T19:07:51.030Z,17.00
2019-05-20T19:15:17.059Z,17.30
2019-05-20T19:22:42.338Z,16.60
2019-05-20T19:25:10.673Z,17.10
2019-05-20T19:27:40.268Z,17.10
2019-05-20T19:32:37.310Z,17.00
2019-05-20T19:35:08.167Z,16.80
2019-05-20T19:45:02.905Z,16.90
2019-05-20T20:02:21.517Z,16.70
2019-05-20T20:04:49.695Z,17.30
2019-05-20T20:29:40.642Z,16.80
2019-05-20T20:44:33.915Z,16.60
2019-05-20T21:12:48.229Z,16.00
2019-05-20T21:28:09.075Z,16.00
2019-05-20T21:30:37.140Z,16.50
2019-05-20T21:57:54.832Z,16.10
2019-05-20T22:05:24.978Z,15.90
2019-05-20T22:07:54.412Z,15.50
2019-05-20T22:10:22.884Z,15.30
2019-05-20T22:12:53.089Z,16.00
2019-05-20T22:17:49.436Z,15.80
2019-05-20T22:20:19.153Z,15.70
2019-05-20T22:22:52.657Z,15.60
2019-05-20T22:25:27.479Z,15.60
2019-05-20T22:27:55.586Z,16.00
2019-05-20T22:30:24.347Z,15.60
2019-05-20T22:32:54.981Z,15.50
2019-05-20T22:35:23.512Z,15.50
2019-05-20T22:40:20.520Z,15.50
2019-05-20T22:45:17.483Z,15.60
2019-05-20T22:50:15.445Z,15.60
2019-05-20T22:52:43.345Z,15.60
2019-05-20T22:55:12.455Z,15.60
2019-05-20T22:57:42.251Z,15.60
2019-05-20T23:00:09.921Z,15.60
2019-05-20T23:02:41.052Z,15.30
2019-05-20T23:07:38.516Z,15.70
2019-05-20T23:10:07.696Z,15.30
2019-05-20T23:15:05.177Z,15.40
2019-05-20T23:17:39.911Z,15.40
2019-05-20T23:20:09.991Z,15.50
2019-05-20T23:22:37.795Z,15.50
2019-05-20T23:25:06.362Z,15.50
2019-05-20T23:27:39.224Z,15.50
2019-05-20T23:30:08.667Z,15.40
2019-05-20T23:32:37.486Z,15.40
2019-05-20T23:35:06.059Z,15.90
2019-05-20T23:37:33.399Z,15.40
2019-05-20T23:40:03.021Z,15.40
2019-05-20T23:42:31.957Z,15.40
2019-05-20T23:45:02.085Z,15.30
2019-05-20T23:47:34.843Z,15.30
2019-05-20T23:50:04.839Z,15.30
2019-05-20T23:52:36.686Z,15.30
2019-05-20T23:55:06.832Z,15.20
2019-05-20T23:57:35.573Z,15.30
